Time;durP1;ratioP1;P1;durP2;ratioP2;P2;SDS_P1;SDS_P2;PMS_P1;PMS_P2;Temp;Humidity;BMP_temperature;BMP_pressure;BME280_temperature;BME280_humidity;BME280_pressure;Samples;Min_cycle;Max_cycle;Signal;HPM_P1;HPM_P2
2023/03/04 00:00:14;;;;;;;4.75;1.38;;;;;;;5.20;64.63;101688.63;4939020;28;20783;-56
2023/03/04 00:02:41;;;;;;;5.82;1.60;;;;;;;5.21;64.62;101692.94;4940280;28;20051;-56
2023/03/04 00:05:08;;;;;;;5.97;1.40;;;;;;;5.19;64.18;101686.81;4937305;28;20139;-57
2023/03/04 00:07:34;;;;;;;3.15;1.08;;;;;;;5.20;64.81;101684.34;4940785;28;20079;-58
2023/03/04 00:10:01;;;;;;;4.57;1.00;;;;;;;5.20;64.90;101683.47;4944450;28;20044;-55
2023/03/04 00:12:28;;;;;;;3.05;1.05;;;;;;;5.13;64.49;101683.19;4945279;28;20216;-56
2023/03/04 00:14:54;;;;;;;2.65;1.55;;;;;;;5.16;64.81;101686.72;4943073;28;20137;-56
2023/03/04 00:17:21;;;;;;;2.38;0.80;;;;;;;5.17;64.67;101683.31;4940045;28;20055;-57
2023/03/04 00:19:48;;;;;;;5.03;1.35;;;;;;;5.12;64.56;101680.53;4943197;28;20051;-55
2023/03/04 00:22:14;;;;;;;10.90;2.97;;;;;;;5.14;64.87;101684.94;4936216;28;20718;-57
2023/03/04 00:24:41;;;;;;;7.93;1.52;;;;;;;5.12;64.80;101685.66;4972891;28;20043;-55
2023/03/04 00:27:07;;;;;;;1.33;0.80;;;;;;;5.09;65.18;101681.28;4941838;28;20086;-56
2023/03/04 00:29:34;;;;;;;5.75;1.40;;;;;;;5.09;64.85;101689.00;4939011;28;20105;-54
2023/03/04 00:32:01;;;;;;;7.57;1.60;;;;;;;5.10;65.13;101688.16;4951611;28;20053;-55
2023/03/04 00:34:27;;;;;;;2.60;1.50;;;;;;;5.11;64.49;101689.94;4944008;28;20051;-57
2023/03/04 00:37:00;;;;;;;4.72;1.63;;;;;;;5.12;65.06;101689.13;4940478;28;20079;-58
2023/03/04 00:39:27;;;;;;;3.70;1.75;;;;;;;5.13;64.89;101697.69;4943712;28;20044;-57
2023/03/04 00:41:54;;;;;;;8.82;1.77;;;;;;;5.13;64.77;101696.03;4949163;28;20134;-55
2023/03/04 00:44:20;;;;;;;3.67;1.40;;;;;;;5.14;65.46;101699.47;4985415;28;20106;-56
2023/03/04 00:46:47;;;;;;;5.57;1.40;;;;;;;5.12;64.77;101696.84;4950662;28;20058;-56
2023/03/04 00:49:14;;;;;;;8.05;1.58;;;;;;;5.08;64.57;101697.50;4947955;28;20067;-56
2023/03/04 00:51:41;;;;;;;5.32;1.27;;;;;;;5.04;65.05;101690.47;4948749;28;20049;-56
2023/03/04 00:54:07;;;;;;;5.55;1.45;;;;;;;5.03;65.03;101691.25;4943939;28;20052;-55
2023/03/04 00:56:34;;;;;;;4.72;1.10;;;;;;;5.00;64.09;101689.44;4943586;28;20134;-56
2023/03/04 00:59:01;;;;;;;3.35;1.75;;;;;;;5.00;64.82;101696.28;4946304;28;20043;-57
2023/03/04 01:01:27;;;;;;;6.82;1.20;;;;;;;5.01;64.27;101692.88;4941962;28;20130;-58
2023/03/04 01:03:54;;;;;;;4.28;0.90;;;;;;;4.97;64.46;101696.13;4941546;28;20126;-57
2023/03/04 01:06:23;;;;;;;4.25;1.35;;;;;;;4.99;64.75;101687.69;4940765;28;20594;-55
2023/03/04 01:08:50;;;;;;;5.00;2.42;;;;;;;4.97;65.20;101696.97;4936757;28;20589;-54
2023/03/04 01:11:17;;;;;;;3.30;2.05;;;;;;;4.99;64.65;101689.34;4939524;28;20562;-56
2023/03/04 01:13:43;;;;;;;4.63;1.50;;;;;;;5.00;64.51;101693.72;4936994;28;20094;-56
2023/03/04 01:16:11;;;;;;;5.03;1.95;;;;;;;4.98;65.10;101692.75;4942684;28;20485;-57
2023/03/04 01:18:38;;;;;;;8.50;2.28;;;;;;;5.00;65.04;101693.72;4940133;28;20447;-57
2023/03/04 01:21:05;;;;;;;6.78;2.05;;;;;;;5.01;64.74;101703.16;4942268;28;20126;-55
2023/03/04 01:23:32;;;;;;;6.78;1.50;;;;;;;5.00;64.71;101696.28;4970283;28;20095;-56
2023/03/04 01:25:58;;;;;;;4.88;1.63;;;;;;;4.98;65.15;101695.31;4941807;28;20155;-57
2023/03/04 01:28:25;;;;;;;3.00;1.50;;;;;;;4.97;64.65;101691.84;4940033;28;20054;-58
2023/03/04 01:30:52;;;;;;;3.97;1.38;;;;;;;4.98;65.50;101698.78;4946829;28;20063;-58
2023/03/04 01:33:18;;;;;;;5.07;1.88;;;;;;;5.00;65.21;101698.84;4945421;28;20067;-55
2023/03/04 01:35:45;;;;;;;5.03;1.48;;;;;;;5.00;65.42;101681.72;4937841;28;20059;-55
2023/03/04 01:38:12;;;;;;;5.28;1.67;;;;;;;5.01;64.83;101688.63;4941153;28;20053;-57
2023/03/04 01:40:38;;;;;;;6.93;2.10;;;;;;;5.02;65.20;101686.94;4944487;28;20154;-57
2023/03/04 01:43:05;;;;;;;6.18;2.17;;;;;;;5.04;64.72;101687.00;4939231;28;20056;-59
2023/03/04 01:45:33;;;;;;;3.30;1.73;;;;;;;5.02;65.19;101679.22;4939687;28;20601;-57
2023/03/04 01:48:00;;;;;;;3.75;1.50;;;;;;;4.96;65.40;101673.84;4939545;28;20039;-58
2023/03/04 01:50:31;;;;;;;3.90;1.63;;;;;;;4.96;65.34;101663.56;4935654;28;20055;-57
2023/03/04 01:52:58;;;;;;;11.23;1.88;;;;;;;4.92;64.93;101666.75;4942728;28;20048;-57
2023/03/04 01:55:25;;;;;;;7.60;1.80;;;;;;;4.94;65.01;101667.72;4935380;28;20078;-55
2023/03/04 01:57:52;;;;;;;3.60;1.65;;;;;;;4.92;65.11;101661.63;4934690;28;20143;-58
2023/03/04 02:03:06;;;;;;;3.83;1.95;;;;;;;4.92;64.67;101656.50;5067394;27;20390;-56
2023/03/04 02:05:34;;;;;;;8.63;1.67;;;;;;;4.92;65.11;101661.63;5027085;28;20049;-58
2023/03/04 02:08:03;;;;;;;5.38;1.58;;;;;;;4.91;65.32;101647.94;5035395;28;20077;-57
2023/03/04 02:10:30;;;;;;;8.88;1.65;;;;;;;4.91;64.99;101653.06;5025957;28;20069;-57
2023/03/04 02:12:58;;;;;;;4.30;1.52;;;;;;;4.91;65.25;101655.63;5030842;28;20594;-56
2023/03/04 02:15:25;;;;;;;5.68;1.77;;;;;;;4.91;65.10;101650.50;5018195;28;20446;-58
2023/03/04 02:17:51;;;;;;;8.98;2.85;;;;;;;4.91;64.95;101647.03;5019667;28;20449;-57
2023/03/04 02:25:40;;;;;;;8.05;2.85;;;;;;;4.91;65.26;101641.91;5030450;27;20409;-56
2023/03/04 02:28:07;;;;;;;6.85;2.88;;;;;;;4.91;65.06;101644.47;4985272;28;20802;-56
2023/03/04 02:30:34;;;;;;;7.30;3.33;;;;;;;4.91;65.55;101637.66;4998599;28;20062;-54
2023/03/04 02:33:00;;;;;;;6.97;3.10;;;;;;;4.91;65.17;101644.47;4998631;28;20115;-58
2023/03/04 02:35:27;;;;;;;8.27;2.75;;;;;;;4.89;65.02;101637.59;4996783;28;20046;-56
2023/03/04 02:37:54;;;;;;;7.70;3.22;;;;;;;4.89;65.60;101642.72;4997966;28;20116;-58
2023/03/04 02:40:29;;;;;;;8.48;3.20;;;;;;;4.88;65.60;101645.22;4999457;28;20092;-58
2023/03/04 02:42:59;;;;;;;3.33;1.73;;;;;;;4.88;65.65;101640.97;4998697;28;20042;-57
2023/03/04 02:48:07;;;;;;;2.15;1.20;;;;;;;4.82;65.52;101630.41;5044236;28;20382;-56
2023/03/04 02:50:39;;;;;;;6.50;2.05;;;;;;;4.83;64.96;101627.00;5000796;28;20075;-57
2023/03/04 02:53:06;;;;;;;7.15;2.67;;;;;;;4.82;65.48;101625.25;5012194;28;20180;-56
2023/03/04 02:55:32;;;;;;;9.32;2.85;;;;;;;4.79;65.39;101619.97;4999879;28;20117;-57
2023/03/04 02:57:59;;;;;;;11.23;3.65;;;;;;;4.82;65.38;101619.25;5000121;28;20050;-56
2023/03/04 03:00:26;;;;;;;8.65;2.42;;;;;;;4.81;65.08;101623.50;4997214;28;20050;-58
2023/03/04 03:02:55;;;;;;;9.60;2.67;;;;;;;4.80;64.95;101619.16;5022813;28;20092;-58
2023/03/04 03:05:28;;;;;;;11.07;3.45;;;;;;;4.81;65.83;101618.38;4994993;28;20054;-57
2023/03/04 03:07:55;;;;;;;10.05;3.40;;;;;;;4.80;65.45;101620.88;5001888;28;20073;-55
2023/03/04 03:10:22;;;;;;;8.25;2.92;;;;;;;4.80;65.83;101615.75;5001162;28;20615;-55
2023/03/04 03:12:49;;;;;;;10.65;3.25;;;;;;;4.79;65.21;101619.97;5006448;28;20057;-55
2023/03/04 03:15:16;;;;;;;9.63;3.47;;;;;;;4.78;65.49;101618.22;5001889;28;20129;-54
2023/03/04 03:17:43;;;;;;;7.60;3.10;;;;;;;4.77;65.72;101616.47;4998667;28;20073;-57
2023/03/04 03:20:11;;;;;;;9.35;3.08;;;;;;;4.76;65.75;101624.97;5003166;28;20104;-57
2023/03/04 03:22:38;;;;;;;13.40;2.88;;;;;;;4.74;65.77;101622.34;5013018;28;20050;-56
2023/03/04 03:25:06;;;;;;;7.00;2.35;;;;;;;4.74;65.30;101618.91;5016905;28;20077;-56
2023/03/04 03:27:32;;;;;;;9.35;3.47;;;;;;;4.70;65.86;101619.56;5023066;28;20177;-58
2023/03/04 03:29:59;;;;;;;10.05;2.83;;;;;;;4.72;65.52;101612.81;5017360;28;20465;-58
2023/03/04 03:32:25;;;;;;;6.55;2.83;;;;;;;4.71;65.51;101616.19;5016197;28;20045;-59
2023/03/04 03:34:52;;;;;;;7.47;3.08;;;;;;;4.71;65.54;101616.19;5021176;28;20046;-57
2023/03/04 03:37:19;;;;;;;6.80;2.53;;;;;;;4.70;65.80;101607.59;5013856;28;20104;-55
2023/03/04 03:39:45;;;;;;;6.68;2.78;;;;;;;4.70;65.63;101617.00;5020004;28;20073;-56
2023/03/04 03:42:12;;;;;;;10.38;3.38;;;;;;;4.72;65.17;101612.81;5011110;28;20095;-58
2023/03/04 03:44:39;;;;;;;7.45;2.58;;;;;;;4.71;65.98;101617.06;5020920;28;20093;-57
2023/03/04 03:47:06;;;;;;;8.48;2.50;;;;;;;4.71;65.49;101613.63;5015361;28;20081;-54
2023/03/04 03:49:32;;;;;;;7.65;3.05;;;;;;;4.69;65.61;101615.25;5019555;28;20107;-57
2023/03/04 03:51:59;;;;;;;8.98;2.97;;;;;;;4.67;65.29;101610.03;5019520;28;20167;-55
2023/03/04 03:54:25;;;;;;;6.40;2.58;;;;;;;4.68;65.76;101601.53;5014057;28;20073;-57
2023/03/04 03:56:52;;;;;;;6.93;3.20;;;;;;;4.69;65.59;101610.13;5014857;28;20069;-54
2023/03/04 03:59:18;;;;;;;9.13;3.17;;;;;;;4.70;65.82;101604.16;5001542;28;20045;-56
2023/03/04 04:01:45;;;;;;;11.32;4.20;;;;;;;4.70;65.61;101599.88;4997576;28;20038;-56
2023/03/04 04:04:12;;;;;;;8.18;3.65;;;;;;;4.70;65.75;101599.03;5005749;28;20096;-56
2023/03/04 04:06:38;;;;;;;9.75;3.25;;;;;;;4.70;65.58;101594.75;5005216;28;20046;-55
2023/03/04 04:09:05;;;;;;;13.20;2.67;;;;;;;4.69;65.61;101602.41;5002051;28;20135;-57
2023/03/04 04:11:32;;;;;;;13.68;3.17;;;;;;;4.68;65.52;101596.38;5006035;28;20077;-55
2023/03/04 04:13:58;;;;;;;8.50;2.35;;;;;;;4.67;65.54;101604.03;5003409;28;20093;-56
2023/03/04 04:16:25;;;;;;;6.53;2.65;;;;;;;4.65;65.93;101600.47;5001764;28;20100;-57
2023/03/04 04:18:52;;;;;;;8.27;3.00;;;;;;;4.63;65.58;101598.72;5004766;28;21563;-54
2023/03/04 04:21:19;;;;;;;9.27;2.50;;;;;;;4.62;65.45;101602.13;5006357;28;20156;-57
2023/03/04 04:23:45;;;;;;;5.47;2.35;;;;;;;4.61;65.78;101599.47;5003111;28;20076;-56
2023/03/04 04:26:12;;;;;;;6.00;2.40;;;;;;;4.60;65.19;101598.59;5003073;28;20049;-58
2023/03/04 04:28:39;;;;;;;6.10;2.55;;;;;;;4.59;65.24;101591.69;5002565;28;20077;-57
2023/03/04 04:31:08;;;;;;;10.02;2.42;;;;;;;4.61;65.59;101599.47;5003287;28;20100;-56
2023/03/04 04:33:36;;;;;;;5.80;2.47;;;;;;;4.59;66.05;101601.97;5001156;28;20136;-56
2023/03/04 04:36:03;;;;;;;4.88;2.47;;;;;;;4.59;65.47;101601.97;5002984;28;20092;-53
2023/03/04 04:38:30;;;;;;;11.63;2.70;;;;;;;4.60;65.81;101601.16;5001656;28;20541;-58
2023/03/04 04:40:57;;;;;;;7.28;2.70;;;;;;;4.60;65.21;101613.13;5002203;28;20137;-55
2023/03/04 04:43:24;;;;;;;4.82;1.83;;;;;;;4.59;65.25;101611.38;4997172;28;20111;-56
2023/03/04 04:45:51;;;;;;;5.95;1.88;;;;;;;4.58;65.53;101610.47;5001880;28;20100;-54
2023/03/04 04:48:18;;;;;;;4.72;1.67;;;;;;;4.57;65.51;101608.72;4995470;28;20054;-56
2023/03/04 04:50:44;;;;;;;5.28;1.63;;;;;;;4.58;65.64;101607.91;4985511;28;20482;-55
2023/03/04 04:53:13;;;;;;;6.65;1.98;;;;;;;4.56;65.76;101606.09;4977702;28;20051;-58
2023/03/04 04:55:39;;;;;;;8.48;2.38;;;;;;;4.54;66.02;101608.59;4977727;28;20090;-56
2023/03/04 04:58:06;;;;;;;3.75;2.08;;;;;;;4.54;65.49;101613.72;4974858;28;20085;-57
2023/03/04 05:00:33;;;;;;;4.97;1.88;;;;;;;4.54;65.69;101616.28;4981477;28;20823;-56
2023/03/04 05:02:59;;;;;;;4.85;2.10;;;;;;;4.53;65.43;101616.19;4983341;28;20453;-57
2023/03/04 05:05:26;;;;;;;7.70;2.33;;;;;;;4.49;65.78;101612.59;4982125;28;20050;-55
2023/03/04 05:07:53;;;;;;;6.93;1.65;;;;;;;4.47;65.94;101624.50;4984810;28;20074;-57
2023/03/04 05:10:19;;;;;;;4.13;1.75;;;;;;;4.50;66.04;101616.94;4977163;28;20109;-58
2023/03/04 05:12:46;;;;;;;5.65;2.03;;;;;;;4.48;65.77;101624.56;4991634;28;20058;-56
2023/03/04 05:15:12;;;;;;;5.53;1.75;;;;;;;4.48;66.25;101619.44;5006059;28;20069;-58
2023/03/04 05:17:39;;;;;;;3.30;1.38;;;;;;;4.48;65.59;101623.66;5007028;28;20100;-56
2023/03/04 05:20:06;;;;;;;6.10;2.15;;;;;;;4.48;66.17;101621.09;5005236;28;20123;-56
2023/03/04 05:22:33;;;;;;;6.20;1.75;;;;;;;4.48;65.89;101623.66;4987278;28;20066;-54
2023/03/04 05:24:59;;;;;;;3.15;1.13;;;;;;;4.48;66.01;101623.66;4982991;28;20054;-57
2023/03/04 05:27:26;;;;;;;3.95;1.67;;;;;;;4.48;65.32;101624.56;4987591;28;20051;-57
2023/03/04 05:29:54;;;;;;;3.22;1.75;;;;;;;4.46;65.97;101625.31;4979324;28;20046;-58
2023/03/04 05:32:20;;;;;;;5.70;1.20;;;;;;;4.47;65.78;101625.38;4981233;28;20092;-56
2023/03/04 05:34:47;;;;;;;2.42;1.60;;;;;;;4.47;65.60;101633.06;4987443;28;20482;-53
2023/03/04 05:37:14;;;;;;;3.83;1.48;;;;;;;4.47;65.82;101633.06;4987549;28;20101;-55
2023/03/04 05:39:40;;;;;;;4.35;1.42;;;;;;;4.45;65.89;101636.34;4981139;28;20457;-56
2023/03/04 05:42:07;;;;;;;3.40;0.90;;;;;;;4.41;65.67;101639.56;4982040;28;20054;-59
2023/03/04 05:44:33;;;;;;;2.33;1.30;;;;;;;4.40;65.77;101635.25;4979444;28;20133;-56
2023/03/04 05:47:00;;;;;;;4.45;1.42;;;;;;;4.41;65.95;101631.88;4982447;28;20158;-59
2023/03/04 05:49:26;;;;;;;2.38;1.25;;;;;;;4.38;66.07;101642.88;4980038;28;20104;-57
2023/03/04 05:51:53;;;;;;;3.00;1.17;;;;;;;4.37;65.88;101636.00;4987993;28;20100;-55
2023/03/04 05:54:20;;;;;;;2.92;0.65;;;;;;;4.37;65.90;101631.75;4978972;28;20148;-55
2023/03/04 05:56:47;;;;;;;3.47;1.48;;;;;;;4.38;65.67;101637.75;4982717;28;20046;-56
2023/03/04 05:59:19;;;;;;;3.50;1.15;;;;;;;4.37;65.89;101636.88;4984463;28;20104;-56
2023/03/04 06:01:46;;;;;;;5.28;1.40;;;;;;;4.39;65.84;101636.06;4983910;28;20054;-57
2023/03/04 06:04:13;;;;;;;6.65;1.70;;;;;;;4.40;66.08;101640.38;4982115;28;20050;-56
2023/03/04 06:06:40;;;;;;;4.78;1.55;;;;;;;4.40;66.11;101635.25;4978760;28;20579;-55
2023/03/04 06:09:06;;;;;;;5.15;1.27;;;;;;;4.41;66.15;101631.88;4981747;28;20144;-56
2023/03/04 06:11:33;;;;;;;6.65;1.25;;;;;;;4.37;66.19;101631.75;4984121;28;20467;-58
2023/03/04 06:14:01;;;;;;;5.55;0.93;;;;;;;4.35;65.99;101638.47;4983761;28;20050;-56
2023/03/04 06:16:28;;;;;;;3.25;1.05;;;;;;;4.37;66.13;101636.88;4980343;28;20050;-55
2023/03/04 06:18:55;;;;;;;2.72;1.13;;;;;;;4.35;65.76;101638.47;4975658;28;20050;-57
2023/03/04 06:21:21;;;;;;;6.38;1.17;;;;;;;4.33;65.84;101629.81;4980776;28;20126;-57
2023/03/04 06:23:48;;;;;;;4.30;1.35;;;;;;;4.34;65.88;101635.84;4979847;28;20073;-57
2023/03/04 06:26:15;;;;;;;3.80;1.63;;;;;;;4.33;65.99;101637.50;4983900;28;20054;-57
2023/03/04 06:28:42;;;;;;;4.50;1.30;;;;;;;4.33;65.81;101634.94;4986653;28;20378;-56
2023/03/04 06:31:09;;;;;;;4.60;1.42;;;;;;;4.31;66.14;101631.44;4982255;28;20133;-57
2023/03/04 06:33:36;;;;;;;1.35;0.73;;;;;;;4.30;66.02;101639.97;4981043;28;20046;-58
2023/03/04 06:36:02;;;;;;;3.60;1.83;;;;;;;4.28;66.09;101636.41;4981493;28;20117;-56
2023/03/04 06:38:29;;;;;;;5.45;1.92;;;;;;;4.29;66.04;101640.75;4976173;28;20071;-57
2023/03/04 06:40:55;;;;;;;1.60;0.80;;;;;;;4.29;65.71;101639.88;4977651;28;20513;-57
2023/03/04 06:43:23;;;;;;;2.97;1.67;;;;;;;4.28;65.98;101641.56;4976533;28;20551;-56
2023/03/04 06:45:50;;;;;;;3.67;0.70;;;;;;;4.31;66.65;101639.13;4983900;28;20109;-58
2023/03/04 06:48:17;;;;;;;1.17;0.55;;;;;;;4.28;66.02;101635.53;4981801;28;20065;-58
2023/03/04 06:50:45;;;;;;;4.32;1.00;;;;;;;4.29;65.85;101642.44;5001643;28;20050;-54
2023/03/04 06:53:11;;;;;;;1.10;0.85;;;;;;;4.28;65.94;101641.56;4979088;28;20110;-56
2023/03/04 06:55:38;;;;;;;2.38;1.10;;;;;;;4.28;65.98;101645.78;4996638;28;20046;-57
2023/03/04 06:58:04;;;;;;;2.28;1.75;;;;;;;4.27;66.02;101647.50;4997843;28;20085;-55
2023/03/04 07:00:31;;;;;;;1.70;0.93;;;;;;;4.27;66.41;101644.94;4995983;28;20131;-56
2023/03/04 07:02:58;;;;;;;2.78;1.10;;;;;;;4.26;65.87;101648.31;5004072;28;20050;-56
2023/03/04 07:05:25;;;;;;;5.55;1.58;;;;;;;4.25;66.11;101651.66;4998254;28;20038;-58
2023/03/04 07:07:52;;;;;;;7.35;1.35;;;;;;;4.25;66.16;101651.66;4998886;28;20523;-55
2023/03/04 07:10:19;;;;;;;2.08;1.55;;;;;;;4.22;66.13;101651.53;4998194;28;20054;-56
2023/03/04 07:12:45;;;;;;;4.38;1.45;;;;;;;4.22;66.00;101659.22;4997691;28;20038;-58
2023/03/04 07:15:12;;;;;;;8.07;1.45;;;;;;;4.24;65.82;101652.47;4997407;28;20105;-56
2023/03/04 07:17:39;;;;;;;3.30;1.58;;;;;;;4.26;66.15;101661.13;5000608;28;20041;-57
2023/03/04 07:20:06;;;;;;;3.47;1.25;;;;;;;4.26;65.80;101663.69;4994959;28;20159;-55
2023/03/04 07:22:33;;;;;;;4.30;1.27;;;;;;;4.26;66.01;101668.81;4997138;28;20081;-55
2023/03/04 07:24:59;;;;;;;4.68;1.05;;;;;;;4.28;66.09;101667.19;5002753;28;20938;-58
2023/03/04 07:27:26;;;;;;;1.90;1.20;;;;;;;4.31;65.71;101662.22;4997373;28;20481;-58
2023/03/04 07:29:52;;;;;;;3.35;2.28;;;;;;;4.33;65.88;101664.88;4994632;28;20054;-53
2023/03/04 07:32:19;;;;;;;4.10;0.93;;;;;;;4.33;65.83;101667.44;4999041;28;20050;-56
2023/03/04 07:34:45;;;;;;;7.63;1.15;;;;;;;4.33;66.14;101665.72;5001428;28;20128;-53
2023/03/04 07:37:12;;;;;;;2.70;0.82;;;;;;;4.31;65.80;101672.50;5002323;28;20413;-56
2023/03/04 07:39:39;;;;;;;5.40;1.15;;;;;;;4.33;66.01;101678.56;5003974;28;20417;-56
2023/03/04 07:42:05;;;;;;;2.05;0.52;;;;;;;4.31;65.83;101682.75;5001643;28;20123;-55
2023/03/04 07:44:32;;;;;;;1.77;0.65;;;;;;;4.24;65.71;101676.44;5002955;28;20054;-57
2023/03/04 07:46:58;;;;;;;3.65;1.10;;;;;;;4.29;65.81;101668.94;5004638;28;20470;-56
2023/03/04 07:49:25;;;;;;;2.90;1.48;;;;;;;4.31;65.75;101672.50;4985619;28;20050;-58
2023/03/04 07:51:51;;;;;;;2.28;1.02;;;;;;;4.31;65.65;101682.75;4978232;28;20101;-56
2023/03/04 07:54:19;;;;;;;5.25;0.80;;;;;;;4.32;66.24;101689.63;4978877;28;20132;-57
2023/03/04 07:56:45;;;;;;;2.35;0.95;;;;;;;4.33;65.49;101691.38;4984365;28;20046;-57
2023/03/04 07:59:12;;;;;;;2.83;2.08;;;;;;;4.33;65.35;101686.25;4983839;28;20046;-57
2023/03/04 08:01:38;;;;;;;11.40;1.48;;;;;;;4.36;65.34;101696.69;4982413;28;20080;-55
2023/03/04 08:04:06;;;;;;;3.17;0.90;;;;;;;4.37;64.91;101693.31;4981789;28;20069;-56
2023/03/04 08:06:33;;;;;;;4.63;1.13;;;;;;;4.39;65.42;101697.66;4983882;28;20066;-57
2023/03/04 08:09:04;;;;;;;3.15;1.00;;;;;;;4.40;65.52;101696.84;4980581;28;20659;-57
2023/03/04 08:11:33;;;;;;;6.40;1.92;;;;;;;4.38;65.41;101694.19;4975391;28;20050;-57
2023/03/04 08:13:59;;;;;;;4.75;1.65;;;;;;;4.40;65.54;101699.41;4981126;28;20046;-58
2023/03/04 08:16:26;;;;;;;6.05;1.98;;;;;;;4.42;65.45;101690.97;4986655;28;20081;-57
2023/03/04 08:18:56;;;;;;;2.58;1.30;;;;;;;4.45;65.27;101705.63;4982036;28;20101;-54
2023/03/04 08:21:24;;;;;;;1.98;1.08;;;;;;;4.47;65.31;101686.97;4978776;28;20046;-58
2023/03/04 08:23:52;;;;;;;5.60;1.65;;;;;;;4.51;65.39;101695.69;4981050;28;20101;-57
2023/03/04 08:26:24;;;;;;;3.30;1.27;;;;;;;4.49;65.37;101692.13;4982639;28;20529;-59
2023/03/04 08:28:51;;;;;;;6.50;1.95;;;;;;;4.52;65.13;101687.16;4981094;28;20137;-54
2023/03/04 08:31:18;;;;;;;4.07;1.05;;;;;;;4.55;65.31;101686.44;4979877;28;20058;-56
2023/03/04 08:33:46;;;;;;;7.72;1.45;;;;;;;4.54;65.65;101690.69;4984083;28;20050;-56
2023/03/04 08:36:14;;;;;;;3.67;1.92;;;;;;;4.55;65.54;101689.88;4981715;28;20050;-57
2023/03/04 08:38:40;;;;;;;6.85;2.22;;;;;;;4.53;65.07;101683.81;4977600;28;20124;-57
2023/03/04 08:41:07;;;;;;;5.57;1.40;;;;;;;4.54;65.04;101676.97;4982280;28;20137;-56
2023/03/04 08:43:34;;;;;;;9.32;1.80;;;;;;;4.53;65.82;101686.38;4977935;28;20533;-58
2023/03/04 08:46:01;;;;;;;1.83;1.00;;;;;;;4.50;65.43;101683.66;4979056;28;20133;-55
2023/03/04 08:48:28;;;;;;;3.08;1.63;;;;;;;4.51;64.53;101680.28;4982467;28;20061;-55
2023/03/04 08:50:54;;;;;;;3.22;1.60;;;;;;;4.55;64.99;101686.44;4979658;28;20058;-59
2023/03/04 08:53:21;;;;;;;2.50;1.63;;;;;;;4.56;65.12;101678.81;4981115;28;20069;-56
2023/03/04 08:55:50;;;;;;;8.85;1.50;;;;;;;4.56;65.41;101683.94;4983132;28;20049;-54
2023/03/04 08:58:16;;;;;;;4.07;1.38;;;;;;;4.55;64.61;101687.31;4982157;28;20046;-54
2023/03/04 09:00:47;;;;;;;9.48;1.90;;;;;;;4.60;65.14;101680.72;4977346;28;20133;-57
2023/03/04 09:03:14;;;;;;;;;;;;;;;4.58;65.07;101687.47;4978494;28;20050;-57
2023/03/04 09:05:40;;;;;;;1.55;1.17;;;;;;;4.58;65.18;101686.59;4981305;28;19925;-56
2023/03/04 09:08:07;;;;;;;5.35;2.40;;;;;;;4.65;64.83;101687.75;4981643;28;20132;-58
2023/03/04 09:10:33;;;;;;;5.47;2.25;;;;;;;4.67;65.03;101686.16;4981979;28;20070;-55
2023/03/04 09:13:00;;;;;;;7.97;1.83;;;;;;;4.67;64.66;101676.78;4983943;28;20066;-57
2023/03/04 09:15:27;;;;;;;6.30;2.10;;;;;;;4.65;65.46;101673.25;4982363;28;20540;-57
2023/03/04 09:17:54;;;;;;;4.00;1.98;;;;;;;4.67;64.67;101675.88;4980607;28;20132;-58
2023/03/04 09:20:21;;;;;;;6.90;1.98;;;;;;;4.70;65.32;101686.31;4976628;28;20078;-57
2023/03/04 09:22:48;;;;;;;5.93;2.40;;;;;;;4.73;64.86;101681.31;4977061;28;20113;-57
2023/03/04 09:25:15;;;;;;;4.88;1.95;;;;;;;4.76;65.21;101686.59;4973888;28;20057;-55
2023/03/04 09:27:42;;;;;;;6.63;1.88;;;;;;;4.75;64.92;101679.69;4981393;28;20058;-59
2023/03/04 09:30:09;;;;;;;5.68;2.28;;;;;;;4.78;65.11;101686.66;4982593;28;20144;-58
2023/03/04 09:32:36;;;;;;;8.88;2.58;;;;;;;4.77;64.82;101690.94;4979729;28;20524;-54
2023/03/04 09:35:03;;;;;;;6.43;2.15;;;;;;;4.82;64.50;101688.56;4979557;28;20046;-57
2023/03/04 09:37:30;;;;;;;6.00;1.92;;;;;;;4.84;64.83;101682.72;4983397;28;20645;-56
2023/03/04 09:39:57;;;;;;;4.07;1.58;;;;;;;4.83;64.94;101693.78;4984531;28;20078;-55
2023/03/04 09:42:31;;;;;;;7.32;2.90;;;;;;;4.86;64.88;101686.22;4981157;28;20089;-57
2023/03/04 09:44:59;;;;;;;6.20;2.80;;;;;;;4.88;64.66;101687.19;4982306;28;20545;-56
2023/03/04 09:47:25;;;;;;;1.95;0.95;;;;;;;4.92;64.95;101687.31;4978223;28;20164;-55
2023/03/04 09:49:57;;;;;;;5.78;2.75;;;;;;;4.96;64.40;101687.53;4982198;28;20457;-56
2023/03/04 09:52:53;;;;;;;6.40;2.17;;;;;;;4.99;65.10;101682.53;4978892;28;20141;-57
2023/03/04 09:58:26;;;;;;;6.70;3.03;;;;;;;5.06;64.11;101680.28;5028960;28;20402;-56
2023/03/04 10:03:50;;;;;;;6.82;1.30;;;;;;;5.12;63.52;101676.28;5037250;28;20403;-57
2023/03/04 10:06:20;;;;;;;2.00;1.05;;;;;;;5.18;64.28;101680.84;5013002;28;20082;-55
2023/03/04 10:09:10;;;;;;;4.63;1.77;;;;;;;5.23;63.94;101683.59;4993745;28;20054;-57
2023/03/04 10:16:55;;;;;;;5.88;2.15;;;;;;;5.48;63.31;101677.00;5013394;27;20398;-57
2023/03/04 10:22:18;;;;;;;1.10;0.73;;;;;;;5.36;63.01;101675.66;5028221;28;20418;-56
2023/03/04 10:24:46;;;;;;;5.10;2.17;;;;;;;5.42;62.92;101676.72;5009809;28;20054;-56
2023/03/04 10:27:17;;;;;;;2.70;1.42;;;;;;;5.44;62.04;101677.69;5012730;28;20049;-57
2023/03/04 10:29:44;;;;;;;8.48;2.25;;;;;;;5.42;62.09;101674.16;5009251;28;20057;-57
2023/03/04 10:32:17;;;;;;;6.95;1.98;;;;;;;5.42;62.04;101675.03;5012785;28;20562;-56
2023/03/04 10:34:44;;;;;;;4.13;1.73;;;;;;;5.43;62.91;101674.22;5016609;28;20042;-56
2023/03/04 10:37:11;;;;;;;5.38;1.90;;;;;;;5.49;62.10;101673.63;5010462;28;20077;-55
2023/03/04 10:39:42;;;;;;;4.95;2.03;;;;;;;5.51;62.51;101674.56;5010841;28;20085;-57
2023/03/04 10:47:31;;;;;;;3.38;2.45;;;;;;;5.57;62.87;101673.97;5131774;27;20895;-58
2023/03/04 10:50:00;;;;;;;3.88;2.50;;;;;;;5.63;62.01;101664.84;5098890;27;20551;-57
2023/03/04 10:52:48;;;;;;;4.10;3.15;;;;;;;5.69;62.67;101661.66;5089081;28;20097;-58
2023/03/04 10:55:19;;;;;;;2.20;1.88;;;;;;;5.74;62.37;101656.72;5099754;27;20039;-56
2023/03/04 10:57:51;;;;;;;3.05;2.47;;;;;;;5.81;61.47;101655.28;5097029;27;20071;-56
2023/03/04 11:03:30;;;;;;;6.65;2.75;;;;;;;6.22;60.70;101655.28;5027057;28;21267;-57
2023/03/04 11:06:20;;;;;;;3.47;1.15;;;;;;;6.11;61.23;101657.44;5004359;28;20050;-58
2023/03/04 11:08:56;;;;;;;3.67;1.25;;;;;;;6.10;60.70;101656.53;5004430;28;21482;-58
2023/03/04 11:11:41;;;;;;;3.85;1.92;;;;;;;6.12;60.36;101660.03;4987419;28;20135;-56
2023/03/04 11:14:21;;;;;;;3.38;1.40;;;;;;;6.16;61.61;101654.22;4996807;28;20046;-56
2023/03/04 11:16:54;;;;;;;4.38;1.70;;;;;;;6.20;59.83;101656.91;4994385;28;20104;-59
2023/03/04 11:19:24;;;;;;;2.70;1.58;;;;;;;6.22;60.15;101657.88;4992417;28;20058;-56
2023/03/04 11:21:51;;;;;;;4.90;1.77;;;;;;;6.24;60.23;101663.94;4992705;28;20113;-59
2023/03/04 11:24:26;;;;;;;2.58;1.42;;;;;;;6.24;60.72;101658.78;4996252;28;20046;-58
2023/03/04 11:27:07;;;;;;;7.05;2.35;;;;;;;6.30;61.03;101649.66;4999943;28;20050;-58
2023/03/04 11:32:36;;;;;;;3.63;3.17;;;;;;;6.34;60.79;101644.59;5093238;27;20400;-58
2023/03/04 11:35:27;;;;;;;2.25;2.05;;;;;;;6.25;59.98;101645.13;5049461;28;20045;-59
2023/03/04 11:40:51;;;;;;;3.45;1.92;;;;;;;6.23;60.22;101633.88;5025691;27;20403;-58
2023/03/04 11:43:27;;;;;;;3.58;1.10;;;;;;;6.24;59.95;101635.63;5001583;28;20077;-57
2023/03/04 11:57:01;;;;;;;5.57;1.73;;;;;;;6.27;59.36;101622.91;5036049;28;20725;-57
2023/03/04 11:59:39;;;;;;;3.92;1.55;;;;;;;6.22;59.77;101617.59;4980548;28;20490;-57
2023/03/04 12:02:17;;;;;;;2.97;1.45;;;;;;;6.15;60.60;101613.84;4977590;28;20082;-57
2023/03/04 12:26:35;;;;;;;8.30;2.22;;;;;;;6.08;59.82;101593.84;5030830;27;20404;-58
2023/03/04 12:31:42;;;;;;;6.50;2.53;;;;;;;6.04;59.26;101584.25;5028411;27;20402;-59
2023/03/04 12:34:48;;;;;;;6.30;2.58;;;;;;;6.02;59.51;101571.28;5012325;28;20549;-58
2023/03/04 12:46:16;;;;;;;2.03;1.17;;;;;;;6.04;60.66;101553.38;5029313;28;20403;-59
2023/03/04 12:48:56;;;;;;;;;;;;;;;6.05;59.80;101565.44;4995812;28;20694;-58
2023/03/04 12:54:44;;;;;;;4.45;2.95;;;;;;;6.12;59.31;101545.97;5037321;28;20755;-59
2023/03/04 12:57:16;;;;;;;4.35;3.05;;;;;;;6.09;58.95;101541.59;5020236;28;20046;-59
2023/03/04 13:00:22;;;;;;;5.10;2.90;;;;;;;6.11;59.84;101537.38;5019390;28;20076;-58
2023/03/04 13:06:19;;;;;;;3.15;1.52;;;;;;;6.17;59.53;101534.16;5081340;27;20394;-58
2023/03/04 13:16:44;;;;;;;4.60;1.52;;;;;;;6.39;58.41;101525.56;5032382;27;20410;-59